createdAt,value
2023-03-25T00:01:16.205Z,97126.63
2023-03-25T00:03:50.753Z,97131.66
2023-03-25T00:06:19.969Z,97122.44
2023-03-25T00:08:48.361Z,97122.44
2023-03-25T00:11:16.860Z,97119.56
2023-03-25T00:13:45.158Z,97103.53
2023-03-25T00:16:13.631Z,97118.88
2023-03-25T00:18:42.009Z,97109.09
2023-03-25T00:21:12.042Z,97122.84
2023-03-25T00:23:41.490Z,97115.56
2023-03-25T00:26:10.359Z,97126.06
2023-03-25T00:28:39.327Z,97121.88
2023-03-25T00:31:09.946Z,97132.28
2023-03-25T00:33:38.232Z,97132.78
2023-03-25T00:36:07.818Z,97121.34
2023-03-25T00:38:38.096Z,97125.63
2023-03-25T00:41:13.939Z,97119.81
2023-03-25T00:43:42.183Z,97113.66
2023-03-25T00:46:10.732Z,97120.00
2023-03-25T00:48:39.302Z,97112.88
2023-03-25T00:51:10.111Z,97122.50
2023-03-25T00:53:39.924Z,97120.91
2023-03-25T00:56:09.119Z,97119.91
2023-03-25T00:58:37.279Z,97111.78
2023-03-25T01:01:13.301Z,97129.81
2023-03-25T01:03:44.047Z,97118.47
2023-03-25T01:06:13.761Z,97114.03
2023-03-25T01:08:44.670Z,97128.59
2023-03-25T01:11:21.547Z,97127.16
2023-03-25T01:13:49.748Z,97132.09
2023-03-25T01:16:18.392Z,97138.44
2023-03-25T01:18:46.686Z,97132.19
2023-03-25T01:21:15.262Z,97120.94
2023-03-25T01:23:45.122Z,97132.94
2023-03-25T01:26:14.170Z,97120.53
2023-03-25T01:28:42.720Z,97129.28
2023-03-25T01:31:14.014Z,97124.22
2023-03-25T01:33:42.380Z,97129.31
2023-03-25T01:36:13.021Z,97135.75
2023-03-25T01:38:41.548Z,97142.06
2023-03-25T01:41:12.205Z,97127.44
2023-03-25T01:43:40.516Z,97122.97
2023-03-25T01:46:15.427Z,97121.88
2023-03-25T01:48:45.194Z,97119.19
2023-03-25T01:51:16.823Z,97108.75
2023-03-25T01:53:45.398Z,97119.94
2023-03-25T01:56:17.865Z,97111.00
2023-03-25T01:58:46.168Z,97097.84
2023-03-25T02:01:15.474Z,97087.84
2023-03-25T02:03:46.117Z,97097.13
2023-03-25T02:06:19.074Z,97095.63
2023-03-25T02:08:47.308Z,97113.06
2023-03-25T02:11:17.999Z,97126.63
2023-03-25T02:13:46.247Z,97123.00
2023-03-25T02:16:23.776Z,97130.72
2023-03-25T02:19:01.875Z,97134.69
2023-03-25T02:22:11.844Z,97133.84
2023-03-25T02:25:16.210Z,97145.88
2023-03-25T02:28:01.836Z,97140.19
2023-03-25T02:30:54.576Z,97145.69
2023-03-25T02:33:48.557Z,97139.75
2023-03-25T02:36:37.930Z,97141.19
2023-03-25T02:39:11.607Z,97136.34
2023-03-25T02:41:44.972Z,97135.81
2023-03-25T02:44:16.459Z,97140.09
2023-03-25T02:46:49.398Z,97138.53
2023-03-25T02:49:21.702Z,97138.09
2023-03-25T02:51:54.881Z,97131.34
2023-03-25T02:54:26.691Z,97138.50
2023-03-25T02:56:57.677Z,97142.88
2023-03-25T02:59:26.157Z,97142.38
2023-03-25T03:01:58.634Z,97148.66
2023-03-25T03:04:27.596Z,97139.91
2023-03-25T03:06:57.389Z,97156.88
2023-03-25T03:09:40.918Z,97158.97
2023-03-25T03:12:21.356Z,97168.66
2023-03-25T03:15:00.002Z,97173.03
2023-03-25T03:17:34.482Z,97181.56
2023-03-25T03:20:06.181Z,97176.28
2023-03-25T03:22:40.587Z,97170.84
2023-03-25T03:25:20.236Z,97178.88
2023-03-25T03:27:51.058Z,97173.66
2023-03-25T03:30:23.584Z,97172.69
2023-03-25T03:32:55.593Z,97175.44
2023-03-25T03:35:26.785Z,97187.97
2023-03-25T03:37:58.460Z,97186.38
2023-03-25T03:40:30.903Z,97189.25
2023-03-25T03:43:01.684Z,97170.28
2023-03-25T03:45:34.727Z,97174.88
2023-03-25T03:48:07.437Z,97168.38
2023-03-25T03:50:40.412Z,97171.94
2023-03-25T03:53:13.706Z,97171.69
2023-03-25T03:55:47.415Z,97174.06
2023-03-25T03:58:22.447Z,97176.16
2023-03-25T04:00:54.202Z,97176.63
2023-03-25T04:03:26.025Z,97173.38
2023-03-25T04:05:56.462Z,97181.19
2023-03-25T04:08:30.550Z,97171.16
2023-03-25T04:11:04.778Z,97177.81
2023-03-25T04:13:36.625Z,97172.53
2023-03-25T04:16:05.562Z,97174.28
2023-03-25T04:18:34.837Z,97172.09
2023-03-25T04:21:03.863Z,97169.16
2023-03-25T04:23:32.225Z,97168.66
2023-03-25T04:26:03.020Z,97175.56
2023-03-25T04:28:32.233Z,97179.22
2023-03-25T04:31:05.632Z,97183.38
2023-03-25T04:33:35.998Z,97185.28
2023-03-25T04:36:06.934Z,97186.66
2023-03-25T04:38:37.792Z,97188.06
2023-03-25T04:41:08.298Z,97187.28
2023-03-25T04:43:39.301Z,97201.28
2023-03-25T04:46:08.197Z,97199.91
2023-03-25T04:48:41.694Z,97203.72
2023-03-25T04:51:12.336Z,97199.91
2023-03-25T04:53:41.170Z,97205.50
2023-03-25T04:56:16.348Z,97200.72
2023-03-25T04:58:44.878Z,97212.31
2023-03-25T05:01:22.403Z,97207.03
2023-03-25T05:03:51.348Z,97208.19
2023-03-25T05:06:20.121Z,97220.25
2023-03-25T05:08:48.264Z,97207.81
2023-03-25T05:11:18.199Z,97218.47
2023-03-25T05:13:46.655Z,97213.63
2023-03-25T05:16:16.067Z,97204.22
2023-03-25T05:18:44.290Z,97206.63
2023-03-25T05:21:12.909Z,97210.03
2023-03-25T05:23:42.046Z,97207.44
2023-03-25T05:26:12.227Z,97216.13
2023-03-25T05:28:42.489Z,97221.84
2023-03-25T05:31:10.920Z,97226.44
2023-03-25T05:33:42.910Z,97218.59
2023-03-25T05:36:12.155Z,97212.75
2023-03-25T05:38:41.994Z,97227.47
2023-03-25T05:41:12.190Z,97228.81
2023-03-25T05:43:46.780Z,97222.94
2023-03-25T05:46:15.704Z,97234.75
2023-03-25T05:48:43.909Z,97233.94
2023-03-25T05:51:15.689Z,97229.56
2023-03-25T05:53:44.891Z,97230.94
2023-03-25T05:56:13.418Z,97232.84
2023-03-25T05:58:43.258Z,97232.06
2023-03-25T06:01:25.455Z,97229.19
2023-03-25T06:04:01.789Z,97229.72
2023-03-25T06:06:32.346Z,97229.59
2023-03-25T06:09:00.737Z,97225.88
2023-03-25T06:11:29.585Z,97232.72
2023-03-25T06:13:59.903Z,97224.41
2023-03-25T06:16:30.555Z,97236.78
2023-03-25T06:19:00.705Z,97238.56
2023-03-25T06:21:30.423Z,97235.31
2023-03-25T06:23:59.660Z,97235.75
2023-03-25T06:26:28.634Z,97243.59
2023-03-25T06:28:56.918Z,97258.63
2023-03-25T06:31:28.046Z,97249.94
2023-03-25T06:33:57.197Z,97252.22
2023-03-25T06:36:26.129Z,97247.09
2023-03-25T06:38:54.794Z,97250.06
2023-03-25T06:41:25.390Z,97258.13
2023-03-25T06:43:53.662Z,97252.25
2023-03-25T06:46:22.421Z,97250.81
2023-03-25T06:48:52.030Z,97252.28
2023-03-25T06:51:22.298Z,97255.72
2023-03-25T06:53:50.682Z,97256.91
2023-03-25T06:56:19.302Z,97260.53
2023-03-25T06:58:47.749Z,97255.47
2023-03-25T07:01:17.100Z,97259.59
2023-03-25T07:03:46.089Z,97265.19
2023-03-25T07:06:18.571Z,97257.53
2023-03-25T07:08:46.944Z,97252.00
2023-03-25T07:11:16.538Z,97242.75
2023-03-25T07:13:44.743Z,97244.78
2023-03-25T07:16:14.563Z,97241.91
2023-03-25T07:18:43.273Z,97238.19
2023-03-25T07:21:11.817Z,97238.22
2023-03-25T07:23:41.649Z,97236.22
2023-03-25T07:26:10.391Z,97231.06
2023-03-25T07:28:39.326Z,97221.81
2023-03-25T07:31:09.416Z,97214.94
2023-03-25T07:33:38.140Z,97224.75
2023-03-25T07:36:08.755Z,97213.06
2023-03-25T07:38:37.184Z,97201.22
2023-03-25T07:41:11.736Z,97194.31
2023-03-25T07:43:40.305Z,97198.03
2023-03-25T07:46:08.947Z,97191.28
2023-03-25T07:48:37.962Z,97192.41
2023-03-25T07:51:07.015Z,97189.28
2023-03-25T07:53:39.109Z,97194.44
2023-03-25T07:56:08.934Z,97189.00
2023-03-25T07:58:38.891Z,97194.13
2023-03-25T08:01:09.549Z,97198.13
2023-03-25T08:03:40.174Z,97190.16
2023-03-25T08:06:09.535Z,97193.13
2023-03-25T08:08:37.841Z,97198.06
2023-03-25T08:11:06.870Z,97196.59
2023-03-25T08:13:35.229Z,97197.09
2023-03-25T08:16:09.988Z,97200.63
2023-03-25T08:18:38.282Z,97195.41
2023-03-25T08:21:07.982Z,97197.59
2023-03-25T08:23:37.231Z,97185.63
2023-03-25T08:26:06.633Z,97193.69
2023-03-25T08:28:34.850Z,97185.59
2023-03-25T08:31:08.965Z,97185.00
2023-03-25T08:33:41.340Z,97177.94
2023-03-25T08:36:14.095Z,97177.44
2023-03-25T08:38:42.660Z,97182.13
2023-03-25T08:41:11.139Z,97192.78
2023-03-25T08:43:39.912Z,97192.19
2023-03-25T08:46:10.046Z,97181.50
2023-03-25T08:48:38.391Z,97170.78
2023-03-25T08:51:07.769Z,97160.13
2023-03-25T08:53:36.065Z,97166.00
2023-03-25T08:56:05.621Z,97177.31
2023-03-25T08:58:33.948Z,97175.38
2023-03-25T09:01:02.617Z,97166.34
2023-03-25T09:03:32.259Z,97173.84
2023-03-25T09:06:05.497Z,97174.00
2023-03-25T09:08:33.998Z,97178.16
2023-03-25T09:11:02.688Z,97168.41
2023-03-25T09:13:31.118Z,97173.91
2023-03-25T09:16:00.005Z,97175.22
2023-03-25T09:18:28.485Z,97161.09
2023-03-25T09:21:01.490Z,97166.06
2023-03-25T09:23:30.318Z,97172.88
2023-03-25T09:26:02.191Z,97156.31
2023-03-25T09:28:30.939Z,97167.25
2023-03-25T09:31:03.167Z,97145.25
2023-03-25T09:33:31.751Z,97158.75
2023-03-25T09:36:02.481Z,97144.59
2023-03-25T09:38:30.733Z,97154.41
2023-03-25T09:40:59.640Z,97145.91
2023-03-25T09:43:38.577Z,97144.66
2023-03-25T09:46:07.967Z,97140.19
2023-03-25T09:48:38.911Z,97132.75
2023-03-25T09:51:14.164Z,97139.50
2023-03-25T09:53:46.271Z,97133.34
2023-03-25T09:56:19.022Z,97131.34
2023-03-25T09:58:49.326Z,97113.97
2023-03-25T10:01:27.111Z,97122.63
2023-03-25T10:04:04.456Z,97125.50
2023-03-25T10:06:39.366Z,97125.84
2023-03-25T10:09:16.193Z,97115.97
2023-03-25T10:11:49.128Z,97117.56
2023-03-25T10:14:25.086Z,97111.22
2023-03-25T10:17:03.670Z,97113.50
2023-03-25T10:19:51.370Z,97102.78
2023-03-25T10:22:26.839Z,97108.00
2023-03-25T10:24:58.027Z,97109.91
2023-03-25T10:27:31.123Z,97131.22
2023-03-25T10:30:02.196Z,97139.91
2023-03-25T10:32:34.323Z,97138.34
2023-03-25T10:35:05.518Z,97141.31
2023-03-25T10:37:39.473Z,97132.63
2023-03-25T10:40:16.714Z,97140.50
2023-03-25T10:42:55.615Z,97122.66
2023-03-25T10:45:24.495Z,97130.84
2023-03-25T10:47:55.742Z,97133.56
2023-03-25T10:50:24.464Z,97122.16
2023-03-25T10:52:56.866Z,97119.44
2023-03-25T10:55:27.762Z,97118.88
2023-03-25T10:57:57.136Z,97108.38
2023-03-25T11:00:26.718Z,97095.56
2023-03-25T11:02:57.171Z,97089.25
2023-03-25T11:05:27.920Z,97095.66
2023-03-25T11:08:08.690Z,97085.28
2023-03-25T11:10:40.206Z,97080.41
2023-03-25T11:13:15.134Z,97078.66
2023-03-25T11:15:43.935Z,97071.63
2023-03-25T11:18:17.100Z,97068.94
2023-03-25T11:20:49.587Z,97065.16
2023-03-25T11:23:23.784Z,97059.25
2023-03-25T11:25:52.230Z,97055.50
2023-03-25T11:28:25.804Z,97059.97
2023-03-25T11:31:13.029Z,97058.59
2023-03-25T11:33:45.583Z,97059.28
2023-03-25T11:36:30.122Z,97060.47
2023-03-25T11:39:01.726Z,97044.41
2023-03-25T11:41:32.730Z,97046.56
2023-03-25T11:44:01.961Z,97047.47
2023-03-25T11:46:30.978Z,97039.81
2023-03-25T11:49:09.542Z,97051.69
2023-03-25T11:51:38.029Z,97051.94
2023-03-25T11:54:10.247Z,97039.44
2023-03-25T11:56:40.409Z,97042.88
2023-03-25T11:59:11.280Z,97046.69
2023-03-25T12:01:42.808Z,97051.66
2023-03-25T12:04:17.125Z,97046.53
2023-03-25T12:06:55.453Z,97048.47
2023-03-25T12:09:25.582Z,97043.88
2023-03-25T12:12:03.492Z,97021.22
2023-03-25T12:14:44.484Z,97047.66
2023-03-25T12:17:19.805Z,97043.16
2023-03-25T12:19:54.579Z,97048.38
2023-03-25T12:22:34.610Z,97056.16
2023-03-25T12:25:26.541Z,97044.69
2023-03-25T12:28:09.167Z,97066.44
2023-03-25T12:30:46.877Z,97073.69
2023-03-25T12:33:26.605Z,97071.97
2023-03-25T12:36:07.677Z,97081.09
2023-03-25T12:38:46.622Z,97079.97
2023-03-25T12:41:23.170Z,97087.16
2023-03-25T12:44:00.043Z,97083.09
2023-03-25T12:46:51.778Z,97074.06
2023-03-25T12:49:31.321Z,97056.41
2023-03-25T12:52:06.319Z,97062.13
2023-03-25T12:54:45.061Z,97072.94
2023-03-25T12:57:22.220Z,97073.75
2023-03-25T13:00:14.832Z,97070.66
2023-03-25T13:03:01.212Z,97066.56
2023-03-25T13:05:35.099Z,97064.06
2023-03-25T13:08:08.105Z,97061.88
2023-03-25T13:10:38.522Z,97061.41
2023-03-25T13:13:12.604Z,97066.94
2023-03-25T13:15:43.144Z,97059.50
2023-03-25T13:18:14.192Z,97054.97
2023-03-25T13:20:46.742Z,97044.78
2023-03-25T13:23:21.586Z,97035.75
2023-03-25T13:25:53.186Z,97036.66
2023-03-25T13:28:25.615Z,97032.81
2023-03-25T13:30:54.908Z,97037.38
2023-03-25T13:33:26.363Z,97032.13
2023-03-25T13:35:57.372Z,97022.53
2023-03-25T13:38:27.285Z,97027.19
2023-03-25T13:41:04.670Z,97018.03
2023-03-25T13:43:38.938Z,97025.53
2023-03-25T13:46:09.812Z,97021.38
2023-03-25T13:48:42.712Z,97021.38
2023-03-25T13:51:11.087Z,97016.09
2023-03-25T13:53:44.950Z,97018.25
2023-03-25T13:57:11.448Z,97015.47
2023-03-25T13:59:58.872Z,97017.22
2023-03-25T14:02:40.421Z,97015.78
2023-03-25T14:05:38.574Z,97026.31
2023-03-25T14:08:35.408Z,97022.88
2023-03-25T14:11:17.179Z,97025.56
2023-03-25T14:13:45.607Z,97015.13
2023-03-25T14:16:17.341Z,97016.69
2023-03-25T14:18:47.960Z,97021.63
2023-03-25T14:21:33.381Z,97012.97
2023-03-25T14:24:03.979Z,97015.53
2023-03-25T14:26:33.732Z,97023.91
2023-03-25T14:29:06.486Z,97010.00
2023-03-25T14:31:36.526Z,97018.03
2023-03-25T14:34:29.171Z,97040.13
2023-03-25T14:37:19.733Z,97037.56
2023-03-25T14:39:47.983Z,97023.31
2023-03-25T14:42:43.599Z,97041.16
2023-03-25T14:45:54.433Z,97026.47
2023-03-25T14:48:31.730Z,97032.88
2023-03-25T14:51:22.368Z,97012.94
2023-03-25T14:53:56.895Z,97034.47
2023-03-25T14:56:27.032Z,97030.44
2023-03-25T14:58:59.178Z,97048.81
2023-03-25T15:01:32.981Z,97043.69
2023-03-25T15:04:16.043Z,97048.03
2023-03-25T15:06:44.735Z,97051.97
2023-03-25T15:09:16.225Z,97045.25
2023-03-25T15:11:44.847Z,97047.91
2023-03-25T15:14:16.837Z,97044.84
2023-03-25T15:17:01.808Z,97051.53
2023-03-25T15:19:31.881Z,97056.81
2023-03-25T15:22:20.993Z,97051.59
2023-03-25T15:24:53.290Z,97064.41
2023-03-25T15:27:38.025Z,97073.56
2023-03-25T15:30:16.298Z,97077.47
2023-03-25T15:32:55.644Z,97086.91
2023-03-25T15:35:38.823Z,97085.41
2023-03-25T15:38:18.309Z,97090.19
2023-03-25T15:40:59.083Z,97088.50
2023-03-25T15:43:59.548Z,97088.19
2023-03-25T15:46:50.047Z,97084.53
2023-03-25T15:49:34.170Z,97086.81
2023-03-25T15:52:16.461Z,97092.94
2023-03-25T15:54:46.847Z,97093.16
2023-03-25T15:57:20.915Z,97084.03
2023-03-25T15:59:54.985Z,97087.22
2023-03-25T16:02:27.835Z,97096.38
2023-03-25T16:04:57.015Z,97091.69
2023-03-25T16:07:30.638Z,97098.09
2023-03-25T16:10:07.140Z,97095.84
2023-03-25T16:12:35.872Z,97096.06
2023-03-25T16:15:07.169Z,97097.06
2023-03-25T16:17:36.440Z,97089.34
2023-03-25T16:20:07.879Z,97092.03
2023-03-25T16:22:38.991Z,97097.38
2023-03-25T16:25:09.653Z,97092.13
2023-03-25T16:27:42.818Z,97105.19
2023-03-25T16:30:22.784Z,97103.06
2023-03-25T16:32:51.380Z,97113.88
2023-03-25T16:35:24.408Z,97104.94
2023-03-25T16:37:57.608Z,97106.03
2023-03-25T16:40:29.493Z,97104.69
2023-03-25T16:43:05.771Z,97100.28
2023-03-25T16:45:35.326Z,97112.47
2023-03-25T16:48:07.321Z,97106.94
2023-03-25T16:50:35.926Z,97112.94
2023-03-25T16:53:06.854Z,97118.97
2023-03-25T16:55:47.301Z,97117.66
2023-03-25T16:58:19.072Z,97123.75
2023-03-25T17:00:50.093Z,97123.59
2023-03-25T17:03:21.694Z,97119.47
2023-03-25T17:06:01.521Z,97125.94
2023-03-25T17:08:31.587Z,97128.19
2023-03-25T17:11:00.931Z,97134.19
2023-03-25T17:13:32.509Z,97134.44
2023-03-25T17:16:01.376Z,97127.34
2023-03-25T17:18:31.475Z,97129.72
2023-03-25T17:21:01.508Z,97130.44
2023-03-25T17:23:37.257Z,97138.03
2023-03-25T17:26:08.950Z,97138.06
2023-03-25T17:28:40.112Z,97141.66
2023-03-25T17:31:28.198Z,97151.56
2023-03-25T17:34:01.445Z,97152.25
2023-03-25T17:36:32.189Z,97153.59
2023-03-25T17:39:04.215Z,97158.72
2023-03-25T17:41:38.974Z,97157.03
2023-03-25T17:44:08.123Z,97164.59
2023-03-25T17:46:36.373Z,97156.06
2023-03-25T17:49:13.201Z,97157.13
2023-03-25T17:51:42.303Z,97165.47
2023-03-25T17:54:12.488Z,97154.22
2023-03-25T17:56:40.964Z,97153.34
2023-03-25T17:59:16.600Z,97153.47
2023-03-25T18:01:45.399Z,97143.38
2023-03-25T18:04:15.264Z,97154.16
2023-03-25T18:06:44.520Z,97146.47
2023-03-25T18:09:17.920Z,97148.97
2023-03-25T18:11:47.397Z,97147.03
2023-03-25T18:14:16.129Z,97144.78
2023-03-25T18:16:44.403Z,97140.56
2023-03-25T18:19:16.122Z,97141.28
2023-03-25T18:21:44.335Z,97146.81
2023-03-25T18:24:13.611Z,97148.78
2023-03-25T18:26:43.802Z,97149.50
2023-03-25T18:29:14.266Z,97157.47
2023-03-25T18:31:42.643Z,97154.44
2023-03-25T18:34:13.197Z,97149.25
2023-03-25T18:36:41.565Z,97148.84
2023-03-25T18:39:14.963Z,97149.88
2023-03-25T18:41:44.970Z,97144.16
2023-03-25T18:44:13.575Z,97150.25
2023-03-25T18:46:42.205Z,97152.44
2023-03-25T18:49:14.342Z,97152.78
2023-03-25T18:51:42.858Z,97151.66
2023-03-25T18:54:11.494Z,97143.03
2023-03-25T18:56:41.810Z,97154.75
2023-03-25T18:59:12.447Z,97150.09
2023-03-25T19:01:40.753Z,97160.63
2023-03-25T19:04:09.398Z,97151.84
2023-03-25T19:06:39.480Z,97156.94
2023-03-25T19:09:09.759Z,97153.91
2023-03-25T19:11:38.057Z,97156.94
2023-03-25T19:14:06.700Z,97164.63
2023-03-25T19:16:36.473Z,97160.25
2023-03-25T19:19:05.192Z,97161.75
2023-03-25T19:21:33.609Z,97162.53
2023-03-25T19:24:02.219Z,97157.19
2023-03-25T19:26:30.586Z,97154.16
2023-03-25T19:28:59.406Z,97158.09
2023-03-25T19:31:29.830Z,97151.56
2023-03-25T19:33:59.831Z,97158.22
2023-03-25T19:36:28.211Z,97145.16
2023-03-25T19:39:03.899Z,97139.72
2023-03-25T19:41:32.266Z,97139.94
2023-03-25T19:44:01.149Z,97140.22
2023-03-25T19:46:31.954Z,97139.03
2023-03-25T19:49:02.110Z,97137.25
2023-03-25T19:51:30.479Z,97143.56
2023-03-25T19:53:59.334Z,97143.19
2023-03-25T19:56:27.657Z,97142.56
2023-03-25T19:58:56.213Z,97142.97
2023-03-25T20:01:24.556Z,97141.47
2023-03-25T20:03:53.311Z,97144.38
2023-03-25T20:06:23.220Z,97137.84
2023-03-25T20:08:51.811Z,97142.19
2023-03-25T20:11:20.173Z,97144.72
2023-03-25T20:13:49.347Z,97141.72
2023-03-25T20:16:17.698Z,97142.03
2023-03-25T20:18:46.846Z,97143.34
2023-03-25T20:21:15.256Z,97146.91
2023-03-25T20:23:45.281Z,97142.78
2023-03-25T20:26:13.548Z,97147.72
2023-03-25T20:28:42.167Z,97148.38
2023-03-25T20:31:18.763Z,97141.44
2023-03-25T20:33:48.210Z,97147.34
2023-03-25T20:36:16.596Z,97152.50
2023-03-25T20:38:56.585Z,97143.72
2023-03-25T20:41:25.624Z,97156.16
2023-03-25T20:43:54.322Z,97157.63
2023-03-25T20:46:25.587Z,97149.78
2023-03-25T20:48:54.483Z,97149.25
2023-03-25T20:51:24.225Z,97164.06
2023-03-25T20:53:54.591Z,97176.81
2023-03-25T20:56:22.849Z,97176.31
2023-03-25T20:58:51.826Z,97183.13
2023-03-25T21:01:21.477Z,97171.19
2023-03-25T21:03:51.935Z,97165.28
2023-03-25T21:06:23.656Z,97176.44
2023-03-25T21:08:55.977Z,97184.88
2023-03-25T21:11:24.604Z,97178.88
2023-03-25T21:13:53.266Z,97191.84
2023-03-25T21:16:21.746Z,97186.66
2023-03-25T21:18:50.576Z,97198.19
2023-03-25T21:21:20.009Z,97203.94
2023-03-25T21:23:49.344Z,97198.72
2023-03-25T21:26:18.987Z,97210.56
2023-03-25T21:28:48.733Z,97224.63
2023-03-25T21:31:21.882Z,97208.63
2023-03-25T21:33:52.908Z,97224.97
2023-03-25T21:36:23.066Z,97217.03
2023-03-25T21:38:52.385Z,97217.50
2023-03-25T21:41:21.995Z,97197.72
2023-03-25T21:43:50.958Z,97215.78
2023-03-25T21:46:19.305Z,97212.81
2023-03-25T21:48:48.730Z,97209.69
2023-03-25T21:51:16.928Z,97211.66
2023-03-25T21:53:46.494Z,97209.09
2023-03-25T21:56:17.435Z,97203.00
2023-03-25T21:58:48.165Z,97199.06
2023-03-25T22:01:19.790Z,97202.66
2023-03-25T22:03:48.322Z,97197.72
2023-03-25T22:06:19.825Z,97201.66
2023-03-25T22:08:48.556Z,97206.69
2023-03-25T22:11:18.792Z,97207.34
2023-03-25T22:13:49.057Z,97214.09
2023-03-25T22:16:18.932Z,97203.88
2023-03-25T22:18:47.839Z,97207.63
2023-03-25T22:21:17.547Z,97224.00
2023-03-25T22:23:47.196Z,97219.28
2023-03-25T22:26:16.846Z,97215.66
2023-03-25T22:28:47.673Z,97216.78
2023-03-25T22:31:18.673Z,97216.09
2023-03-25T22:33:47.188Z,97217.19
2023-03-25T22:36:16.913Z,97216.19
2023-03-25T22:38:47.170Z,97213.19
2023-03-25T22:41:16.960Z,97215.97
2023-03-25T22:43:46.627Z,97213.31
2023-03-25T22:46:15.608Z,97213.34
2023-03-25T22:48:46.018Z,97216.56
2023-03-25T22:51:15.985Z,97221.25
2023-03-25T22:53:44.830Z,97219.91
2023-03-25T22:56:13.420Z,97223.13
2023-03-25T22:58:42.206Z,97236.63
2023-03-25T23:01:19.882Z,97224.13
2023-03-25T23:03:49.973Z,97229.00
2023-03-25T23:06:18.363Z,97236.72
2023-03-25T23:08:47.767Z,97235.34
2023-03-25T23:11:18.544Z,97234.97
2023-03-25T23:13:48.880Z,97240.03
2023-03-25T23:16:18.749Z,97243.03
2023-03-25T23:18:47.436Z,97243.34
2023-03-25T23:21:18.687Z,97232.91
2023-03-25T23:23:52.597Z,97234.50
2023-03-25T23:26:24.850Z,97235.78
2023-03-25T23:28:56.587Z,97228.66
2023-03-25T23:31:28.677Z,97230.41
2023-03-25T23:33:59.262Z,97228.66
2023-03-25T23:36:29.454Z,97229.59
2023-03-25T23:38:58.835Z,97233.00
2023-03-25T23:41:27.324Z,97218.69
2023-03-25T23:43:56.528Z,97219.06
2023-03-25T23:46:26.389Z,97220.00
2023-03-25T23:48:55.702Z,97218.25
2023-03-25T23:51:25.697Z,97215.53
2023-03-25T23:53:55.568Z,97226.66
2023-03-25T23:56:25.244Z,97223.66
2023-03-25T23:58:53.971Z,97225.44
